sensor_id;sensor_type;location;lat;lon;timestamp;temperature;humidity
1716;DHT22;855;48.824;9.220;2023-05-10T00:01:11;16.30;95.10
1716;DHT22;855;48.824;9.220;2023-05-10T00:03:38;16.10;94.70
1716;DHT22;855;48.824;9.220;2023-05-10T00:06:05;15.90;94.80
1716;DHT22;855;48.824;9.220;2023-05-10T00:08:35;15.80;95.80
1716;DHT22;855;48.824;9.220;2023-05-10T00:11:01;15.60;95.30
1716;DHT22;855;48.824;9.220;2023-05-10T00:13:28;15.40;96.20
1716;DHT22;855;48.824;9.220;2023-05-10T00:15:55;15.30;96.40
1716;DHT22;855;48.824;9.220;2023-05-10T00:18:22;15.20;96.90
1716;DHT22;855;48.824;9.220;2023-05-10T00:20:49;15.20;96.90
1716;DHT22;855;48.824;9.220;2023-05-10T00:23:16;15.10;97.00
1716;DHT22;855;48.824;9.220;2023-05-10T00:25:44;15.10;97.10
1716;DHT22;855;48.824;9.220;2023-05-10T00:28:10;15.20;97.10
1716;DHT22;855;48.824;9.220;2023-05-10T00:30:37;15.20;96.70
1716;DHT22;855;48.824;9.220;2023-05-10T00:33:04;15.20;96.40
1716;DHT22;855;48.824;9.220;2023-05-10T00:35:31;15.20;96.20
1716;DHT22;855;48.824;9.220;2023-05-10T00:37:58;15.20;96.20
1716;DHT22;855;48.824;9.220;2023-05-10T00:40:24;15.20;95.70
1716;DHT22;855;48.824;9.220;2023-05-10T00:42:53;15.20;95.50
1716;DHT22;855;48.824;9.220;2023-05-10T00:45:20;15.20;95.80
1716;DHT22;855;48.824;9.220;2023-05-10T00:47:46;15.20;95.70
1716;DHT22;855;48.824;9.220;2023-05-10T00:50:14;15.20;95.60
1716;DHT22;855;48.824;9.220;2023-05-10T00:52:41;15.20;95.50
1716;DHT22;855;48.824;9.220;2023-05-10T00:55:09;15.10;95.30
1716;DHT22;855;48.824;9.220;2023-05-10T00:57:37;15.20;95.60
1716;DHT22;855;48.824;9.220;2023-05-10T01:00:07;15.20;95.60
1716;DHT22;855;48.824;9.220;2023-05-10T01:02:35;15.10;95.60
1716;DHT22;855;48.824;9.220;2023-05-10T01:05:02;15.20;95.90
1716;DHT22;855;48.824;9.220;2023-05-10T01:07:30;15.10;95.90
1716;DHT22;855;48.824;9.220;2023-05-10T01:13:31;15.10;96.10
1716;DHT22;855;48.824;9.220;2023-05-10T01:16:00;14.90;95.50
1716;DHT22;855;48.824;9.220;2023-05-10T01:18:29;14.90;95.50
1716;DHT22;855;48.824;9.220;2023-05-10T01:21:05;14.90;95.50
1716;DHT22;855;48.824;9.220;2023-05-10T01:23:46;14.90;95.40
1716;DHT22;855;48.824;9.220;2023-05-10T01:26:57;14.80;95.50
1716;DHT22;855;48.824;9.220;2023-05-10T01:32:31;14.70;95.50
1716;DHT22;855;48.824;9.220;2023-05-10T01:35:04;14.80;95.50
1716;DHT22;855;48.824;9.220;2023-05-10T01:37:40;14.80;95.20
1716;DHT22;855;48.824;9.220;2023-05-10T01:40:13;14.70;95.30
1716;DHT22;855;48.824;9.220;2023-05-10T01:42:46;14.60;95.40
1716;DHT22;855;48.824;9.220;2023-05-10T01:45:20;14.70;95.70
1716;DHT22;855;48.824;9.220;2023-05-10T01:47:57;14.80;95.70
1716;DHT22;855;48.824;9.220;2023-05-10T01:50:29;14.80;95.30
1716;DHT22;855;48.824;9.220;2023-05-10T01:52:59;14.80;95.00
1716;DHT22;855;48.824;9.220;2023-05-10T01:55:30;14.90;95.20
1716;DHT22;855;48.824;9.220;2023-05-10T01:58:13;14.80;94.90
1716;DHT22;855;48.824;9.220;2023-05-10T02:00:43;14.90;95.00
1716;DHT22;855;48.824;9.220;2023-05-10T02:03:13;15.00;95.20
1716;DHT22;855;48.824;9.220;2023-05-10T02:05:43;15.00;95.00
1716;DHT22;855;48.824;9.220;2023-05-10T02:08:11;15.10;95.20
1716;DHT22;855;48.824;9.220;2023-05-10T02:10:39;15.20;94.80
1716;DHT22;855;48.824;9.220;2023-05-10T02:13:07;15.20;94.60
1716;DHT22;855;48.824;9.220;2023-05-10T02:15:35;15.20;94.50
1716;DHT22;855;48.824;9.220;2023-05-10T02:18:04;15.30;94.50
1716;DHT22;855;48.824;9.220;2023-05-10T02:20:34;15.40;94.10
1716;DHT22;855;48.824;9.220;2023-05-10T02:23:02;15.40;93.90
1716;DHT22;855;48.824;9.220;2023-05-10T02:25:30;15.50;93.70
1716;DHT22;855;48.824;9.220;2023-05-10T02:28:00;15.50;93.50
1716;DHT22;855;48.824;9.220;2023-05-10T02:30:28;15.60;93.40
1716;DHT22;855;48.824;9.220;2023-05-10T02:32:57;15.50;93.30
1716;DHT22;855;48.824;9.220;2023-05-10T02:35:26;15.60;93.30
1716;DHT22;855;48.824;9.220;2023-05-10T02:37:54;15.60;93.20
1716;DHT22;855;48.824;9.220;2023-05-10T02:40:24;15.70;93.00
1716;DHT22;855;48.824;9.220;2023-05-10T02:42:52;15.70;93.10
1716;DHT22;855;48.824;9.220;2023-05-10T02:45:24;15.70;93.20
1716;DHT22;855;48.824;9.220;2023-05-10T02:47:53;15.70;93.40
1716;DHT22;855;48.824;9.220;2023-05-10T02:50:21;15.70;93.30
1716;DHT22;855;48.824;9.220;2023-05-10T02:52:51;15.70;93.30
1716;DHT22;855;48.824;9.220;2023-05-10T02:55:21;15.70;93.20
1716;DHT22;855;48.824;9.220;2023-05-10T02:57:52;15.70;93.30
1716;DHT22;855;48.824;9.220;2023-05-10T03:00:21;15.60;93.40
1716;DHT22;855;48.824;9.220;2023-05-10T03:02:47;15.70;93.60
1716;DHT22;855;48.824;9.220;2023-05-10T03:05:14;15.70;93.60
1716;DHT22;855;48.824;9.220;2023-05-10T03:07:41;15.70;93.50
1716;DHT22;855;48.824;9.220;2023-05-10T03:10:09;15.70;93.50
1716;DHT22;855;48.824;9.220;2023-05-10T03:12:51;15.80;93.40
1716;DHT22;855;48.824;9.220;2023-05-10T03:15:24;15.80;93.40
1716;DHT22;855;48.824;9.220;2023-05-10T03:17:56;15.80;93.50
1716;DHT22;855;48.824;9.220;2023-05-10T03:20:31;15.90;93.20
1716;DHT22;855;48.824;9.220;2023-05-10T03:23:04;15.90;93.00
1716;DHT22;855;48.824;9.220;2023-05-10T03:25:34;16.00;93.00
1716;DHT22;855;48.824;9.220;2023-05-10T03:28:04;15.90;93.00
1716;DHT22;855;48.824;9.220;2023-05-10T03:30:31;16.00;92.90
1716;DHT22;855;48.824;9.220;2023-05-10T03:33:04;15.90;92.90
1716;DHT22;855;48.824;9.220;2023-05-10T03:35:31;16.00;92.80
1716;DHT22;855;48.824;9.220;2023-05-10T03:37:57;16.00;92.50
1716;DHT22;855;48.824;9.220;2023-05-10T03:40:25;16.00;92.80
1716;DHT22;855;48.824;9.220;2023-05-10T03:42:52;15.90;92.90
1716;DHT22;855;48.824;9.220;2023-05-10T03:45:20;15.80;93.00
1716;DHT22;855;48.824;9.220;2023-05-10T03:47:47;15.90;92.90
1716;DHT22;855;48.824;9.220;2023-05-10T03:50:14;15.90;93.00
1716;DHT22;855;48.824;9.220;2023-05-10T03:52:41;15.90;93.00
1716;DHT22;855;48.824;9.220;2023-05-10T03:55:08;15.90;92.70
1716;DHT22;855;48.824;9.220;2023-05-10T03:57:35;16.00;92.70
1716;DHT22;855;48.824;9.220;2023-05-10T04:00:02;16.00;92.60
1716;DHT22;855;48.824;9.220;2023-05-10T04:02:30;16.10;92.70
1716;DHT22;855;48.824;9.220;2023-05-10T04:04:57;16.10;92.60
1716;DHT22;855;48.824;9.220;2023-05-10T04:07:23;16.10;92.70
1716;DHT22;855;48.824;9.220;2023-05-10T04:09:50;16.10;92.80
1716;DHT22;855;48.824;9.220;2023-05-10T04:12:17;16.10;92.80
1716;DHT22;855;48.824;9.220;2023-05-10T04:14:44;16.10;92.80
1716;DHT22;855;48.824;9.220;2023-05-10T04:17:11;16.10;92.90
1716;DHT22;855;48.824;9.220;2023-05-10T04:19:39;16.10;93.00
1716;DHT22;855;48.824;9.220;2023-05-10T04:22:06;16.10;93.10
1716;DHT22;855;48.824;9.220;2023-05-10T04:24:32;16.10;93.00
1716;DHT22;855;48.824;9.220;2023-05-10T04:26:59;16.10;92.90
1716;DHT22;855;48.824;9.220;2023-05-10T04:29:26;16.00;92.60
1716;DHT22;855;48.824;9.220;2023-05-10T04:31:53;15.90;92.70
1716;DHT22;855;48.824;9.220;2023-05-10T04:34:22;15.90;92.80
1716;DHT22;855;48.824;9.220;2023-05-10T04:36:50;15.90;93.00
1716;DHT22;855;48.824;9.220;2023-05-10T04:39:16;15.80;93.10
1716;DHT22;855;48.824;9.220;2023-05-10T04:41:43;15.70;93.10
1716;DHT22;855;48.824;9.220;2023-05-10T04:44:10;15.70;93.20
1716;DHT22;855;48.824;9.220;2023-05-10T04:46:37;15.80;93.20
1716;DHT22;855;48.824;9.220;2023-05-10T04:49:04;15.80;93.00
1716;DHT22;855;48.824;9.220;2023-05-10T04:51:31;15.90;92.90
1716;DHT22;855;48.824;9.220;2023-05-10T04:53:59;15.80;92.80
1716;DHT22;855;48.824;9.220;2023-05-10T04:56:26;15.80;92.80
1716;DHT22;855;48.824;9.220;2023-05-10T04:58:52;15.80;92.70
1716;DHT22;855;48.824;9.220;2023-05-10T05:01:19;15.80;92.70
1716;DHT22;855;48.824;9.220;2023-05-10T05:03:46;15.80;92.80
1716;DHT22;855;48.824;9.220;2023-05-10T05:06:13;15.90;92.80
1716;DHT22;855;48.824;9.220;2023-05-10T05:08:40;15.90;92.70
1716;DHT22;855;48.824;9.220;2023-05-10T05:11:08;16.00;92.60
1716;DHT22;855;48.824;9.220;2023-05-10T05:13:34;16.10;92.40
1716;DHT22;855;48.824;9.220;2023-05-10T05:16:01;16.10;92.20
1716;DHT22;855;48.824;9.220;2023-05-10T05:18:28;16.20;92.20
1716;DHT22;855;48.824;9.220;2023-05-10T05:20:55;16.30;92.20
1716;DHT22;855;48.824;9.220;2023-05-10T05:23:22;16.40;92.00
1716;DHT22;855;48.824;9.220;2023-05-10T05:25:51;16.50;92.10
1716;DHT22;855;48.824;9.220;2023-05-10T05:28:19;16.60;91.80
1716;DHT22;855;48.824;9.220;2023-05-10T05:30:46;16.70;91.50
1716;DHT22;855;48.824;9.220;2023-05-10T05:33:13;16.70;91.10
1716;DHT22;855;48.824;9.220;2023-05-10T05:35:40;16.60;90.40
1716;DHT22;855;48.824;9.220;2023-05-10T05:38:08;16.70;90.40
1716;DHT22;855;48.824;9.220;2023-05-10T05:40:35;16.90;90.40
1716;DHT22;855;48.824;9.220;2023-05-10T05:43:02;17.00;90.50
1716;DHT22;855;48.824;9.220;2023-05-10T05:45:30;17.10;90.40
1716;DHT22;855;48.824;9.220;2023-05-10T05:47:57;17.10;90.20
1716;DHT22;855;48.824;9.220;2023-05-10T05:50:24;17.20;90.10
1716;DHT22;855;48.824;9.220;2023-05-10T05:52:50;17.20;89.30
1716;DHT22;855;48.824;9.220;2023-05-10T05:55:17;17.20;88.90
1716;DHT22;855;48.824;9.220;2023-05-10T05:57:44;17.30;89.50
1716;DHT22;855;48.824;9.220;2023-05-10T06:00:12;17.30;88.10
1716;DHT22;855;48.824;9.220;2023-05-10T06:02:40;17.30;89.10
1716;DHT22;855;48.824;9.220;2023-05-10T06:05:08;17.30;88.90
1716;DHT22;855;48.824;9.220;2023-05-10T06:07:35;17.40;88.30
1716;DHT22;855;48.824;9.220;2023-05-10T06:10:02;17.50;87.80
1716;DHT22;855;48.824;9.220;2023-05-10T06:12:29;17.50;87.40
1716;DHT22;855;48.824;9.220;2023-05-10T06:14:56;17.60;87.50
1716;DHT22;855;48.824;9.220;2023-05-10T06:17:22;17.60;88.10
1716;DHT22;855;48.824;9.220;2023-05-10T06:19:50;17.60;87.70
1716;DHT22;855;48.824;9.220;2023-05-10T06:22:17;17.60;86.90
1716;DHT22;855;48.824;9.220;2023-05-10T06:24:44;17.50;87.30
1716;DHT22;855;48.824;9.220;2023-05-10T06:27:11;17.60;87.80
1716;DHT22;855;48.824;9.220;2023-05-10T06:29:38;17.60;88.10
1716;DHT22;855;48.824;9.220;2023-05-10T06:32:04;17.60;88.10
1716;DHT22;855;48.824;9.220;2023-05-10T06:34:31;17.60;87.50
1716;DHT22;855;48.824;9.220;2023-05-10T06:36:59;17.50;87.40
1716;DHT22;855;48.824;9.220;2023-05-10T06:39:26;17.60;87.40
1716;DHT22;855;48.824;9.220;2023-05-10T06:41:54;17.70;88.30
1716;DHT22;855;48.824;9.220;2023-05-10T06:44:22;17.80;87.40
1716;DHT22;855;48.824;9.220;2023-05-10T06:46:49;17.90;88.50
1716;DHT22;855;48.824;9.220;2023-05-10T06:49:18;18.10;87.10
1716;DHT22;855;48.824;9.220;2023-05-10T06:51:44;18.10;86.40
1716;DHT22;855;48.824;9.220;2023-05-10T06:54:13;18.10;85.80
1716;DHT22;855;48.824;9.220;2023-05-10T06:56:39;18.10;85.60
1716;DHT22;855;48.824;9.220;2023-05-10T06:59:06;18.30;85.20
1716;DHT22;855;48.824;9.220;2023-05-10T07:01:33;18.00;84.80
1716;DHT22;855;48.824;9.220;2023-05-10T07:04:00;17.80;85.20
1716;DHT22;855;48.824;9.220;2023-05-10T07:06:27;17.60;85.30
1716;DHT22;855;48.824;9.220;2023-05-10T07:08:54;17.60;85.70
1716;DHT22;855;48.824;9.220;2023-05-10T07:11:22;17.40;86.10
1716;DHT22;855;48.824;9.220;2023-05-10T07:13:49;17.40;86.70
1716;DHT22;855;48.824;9.220;2023-05-10T07:16:16;17.40;86.70
1716;DHT22;855;48.824;9.220;2023-05-10T07:18:42;17.50;86.40
1716;DHT22;855;48.824;9.220;2023-05-10T07:21:09;17.60;86.00
1716;DHT22;855;48.824;9.220;2023-05-10T07:23:36;17.70;85.20
1716;DHT22;855;48.824;9.220;2023-05-10T07:26:03;17.90;84.40
1716;DHT22;855;48.824;9.220;2023-05-10T07:28:31;18.00;83.40
1716;DHT22;855;48.824;9.220;2023-05-10T07:30:58;18.00;81.70
1716;DHT22;855;48.824;9.220;2023-05-10T07:33:25;17.90;81.70
1716;DHT22;855;48.824;9.220;2023-05-10T07:35:52;17.90;82.00
1716;DHT22;855;48.824;9.220;2023-05-10T07:38:18;17.80;81.70
1716;DHT22;855;48.824;9.220;2023-05-10T07:40:45;17.90;83.80
1716;DHT22;855;48.824;9.220;2023-05-10T07:43:12;18.00;82.40
1716;DHT22;855;48.824;9.220;2023-05-10T07:45:40;17.90;80.90
1716;DHT22;855;48.824;9.220;2023-05-10T07:48:07;18.00;82.30
1716;DHT22;855;48.824;9.220;2023-05-10T07:50:34;18.10;83.30
1716;DHT22;855;48.824;9.220;2023-05-10T07:53:00;18.20;83.80
1716;DHT22;855;48.824;9.220;2023-05-10T07:55:27;18.20;83.30
1716;DHT22;855;48.824;9.220;2023-05-10T07:57:54;18.30;81.60
1716;DHT22;855;48.824;9.220;2023-05-10T08:00:21;18.50;81.90
1716;DHT22;855;48.824;9.220;2023-05-10T08:02:49;18.40;80.70
1716;DHT22;855;48.824;9.220;2023-05-10T08:05:16;18.40;79.90
1716;DHT22;855;48.824;9.220;2023-05-10T08:07:43;18.40;79.60
1716;DHT22;855;48.824;9.220;2023-05-10T08:10:10;18.50;80.70
1716;DHT22;855;48.824;9.220;2023-05-10T08:12:37;18.40;78.00
1716;DHT22;855;48.824;9.220;2023-05-10T08:15:05;18.10;80.30
1716;DHT22;855;48.824;9.220;2023-05-10T08:17:32;17.90;78.30
1716;DHT22;855;48.824;9.220;2023-05-10T08:20:00;17.80;78.60
1716;DHT22;855;48.824;9.220;2023-05-10T08:22:27;17.60;79.20
1716;DHT22;855;48.824;9.220;2023-05-10T08:24:54;17.60;79.10
1716;DHT22;855;48.824;9.220;2023-05-10T08:27:21;17.60;79.70
1716;DHT22;855;48.824;9.220;2023-05-10T08:29:48;17.70;80.10
1716;DHT22;855;48.824;9.220;2023-05-10T08:32:14;17.70;79.50
1716;DHT22;855;48.824;9.220;2023-05-10T08:34:41;17.70;80.50
1716;DHT22;855;48.824;9.220;2023-05-10T08:37:09;17.90;80.50
1716;DHT22;855;48.824;9.220;2023-05-10T08:39:38;17.70;79.70
1716;DHT22;855;48.824;9.220;2023-05-10T08:42:06;17.70;79.60
1716;DHT22;855;48.824;9.220;2023-05-10T08:44:35;17.70;79.30
1716;DHT22;855;48.824;9.220;2023-05-10T08:47:05;17.80;79.90
1716;DHT22;855;48.824;9.220;2023-05-10T08:49:33;18.00;78.60
1716;DHT22;855;48.824;9.220;2023-05-10T08:52:02;18.00;77.80
1716;DHT22;855;48.824;9.220;2023-05-10T08:54:32;17.90;77.80
1716;DHT22;855;48.824;9.220;2023-05-10T08:57:00;17.90;76.00
1716;DHT22;855;48.824;9.220;2023-05-10T08:59:27;17.90;75.60
1716;DHT22;855;48.824;9.220;2023-05-10T09:01:56;18.00;74.50
1716;DHT22;855;48.824;9.220;2023-05-10T09:04:24;18.10;75.50
1716;DHT22;855;48.824;9.220;2023-05-10T09:06:51;18.10;74.60
1716;DHT22;855;48.824;9.220;2023-05-10T09:09:18;18.20;73.80
1716;DHT22;855;48.824;9.220;2023-05-10T09:11:47;18.40;74.60
1716;DHT22;855;48.824;9.220;2023-05-10T09:14:15;18.50;74.20
1716;DHT22;855;48.824;9.220;2023-05-10T09:16:42;18.60;71.70
1716;DHT22;855;48.824;9.220;2023-05-10T09:19:09;18.60;73.50
1716;DHT22;855;48.824;9.220;2023-05-10T09:21:36;18.60;72.60
1716;DHT22;855;48.824;9.220;2023-05-10T09:24:04;18.40;71.30
1716;DHT22;855;48.824;9.220;2023-05-10T09:26:31;18.40;73.30
1716;DHT22;855;48.824;9.220;2023-05-10T09:29:00;18.20;72.20
1716;DHT22;855;48.824;9.220;2023-05-10T09:31:43;18.20;73.10
1716;DHT22;855;48.824;9.220;2023-05-10T09:34:15;18.30;73.30
1716;DHT22;855;48.824;9.220;2023-05-10T09:36:52;18.50;72.60
1716;DHT22;855;48.824;9.220;2023-05-10T09:39:20;18.60;73.40
1716;DHT22;855;48.824;9.220;2023-05-10T09:41:47;18.70;74.30
1716;DHT22;855;48.824;9.220;2023-05-10T09:44:18;18.80;73.70
1716;DHT22;855;48.824;9.220;2023-05-10T09:46:49;18.80;71.00
1716;DHT22;855;48.824;9.220;2023-05-10T09:49:17;19.00;70.60
1716;DHT22;855;48.824;9.220;2023-05-10T09:51:43;19.20;69.70
1716;DHT22;855;48.824;9.220;2023-05-10T09:54:11;19.10;69.00
1716;DHT22;855;48.824;9.220;2023-05-10T09:56:39;19.00;69.00
1716;DHT22;855;48.824;9.220;2023-05-10T09:59:07;18.90;69.60
1716;DHT22;855;48.824;9.220;2023-05-10T10:01:35;18.60;70.80
1716;DHT22;855;48.824;9.220;2023-05-10T10:04:03;18.40;71.80
1716;DHT22;855;48.824;9.220;2023-05-10T10:06:35;18.20;71.40
1716;DHT22;855;48.824;9.220;2023-05-10T10:09:04;17.90;73.50
1716;DHT22;855;48.824;9.220;2023-05-10T10:11:30;18.00;75.30
1716;DHT22;855;48.824;9.220;2023-05-10T10:13:58;18.00;75.10
1716;DHT22;855;48.824;9.220;2023-05-10T10:16:26;18.00;75.00
1716;DHT22;855;48.824;9.220;2023-05-10T10:18:55;18.20;75.00
1716;DHT22;855;48.824;9.220;2023-05-10T10:21:22;18.20;73.90
1716;DHT22;855;48.824;9.220;2023-05-10T10:23:49;18.20;73.10
1716;DHT22;855;48.824;9.220;2023-05-10T10:26:17;18.30;73.70
1716;DHT22;855;48.824;9.220;2023-05-10T10:28:54;18.20;73.00
1716;DHT22;855;48.824;9.220;2023-05-10T10:31:27;18.10;72.90
1716;DHT22;855;48.824;9.220;2023-05-10T10:34:05;18.00;73.10
1716;DHT22;855;48.824;9.220;2023-05-10T10:36:33;18.00;74.10
1716;DHT22;855;48.824;9.220;2023-05-10T10:39:09;18.10;73.80
1716;DHT22;855;48.824;9.220;2023-05-10T10:41:39;18.20;74.30
1716;DHT22;855;48.824;9.220;2023-05-10T10:44:35;18.30;74.70
1716;DHT22;855;48.824;9.220;2023-05-10T10:47:10;18.20;74.30
1716;DHT22;855;48.824;9.220;2023-05-10T10:49:53;18.20;74.30
1716;DHT22;855;48.824;9.220;2023-05-10T10:52:31;18.30;74.60
1716;DHT22;855;48.824;9.220;2023-05-10T10:55:01;18.30;74.10
1716;DHT22;855;48.824;9.220;2023-05-10T10:57:30;18.40;71.80
1716;DHT22;855;48.824;9.220;2023-05-10T11:00:20;18.50;71.90
1716;DHT22;855;48.824;9.220;2023-05-10T11:02:49;18.60;70.00
1716;DHT22;855;48.824;9.220;2023-05-10T11:05:45;18.40;70.20
1716;DHT22;855;48.824;9.220;2023-05-10T11:08:18;18.70;68.80
1716;DHT22;855;48.824;9.220;2023-05-10T11:11:03;18.60;68.10
1716;DHT22;855;48.824;9.220;2023-05-10T11:13:33;18.00;66.40
1716;DHT22;855;48.824;9.220;2023-05-10T11:16:10;17.90;68.00
1716;DHT22;855;48.824;9.220;2023-05-10T11:18:38;18.00;67.60
1716;DHT22;855;48.824;9.220;2023-05-10T11:21:09;18.00;68.80
1716;DHT22;855;48.824;9.220;2023-05-10T11:23:48;18.00;68.50
1716;DHT22;855;48.824;9.220;2023-05-10T11:26:16;17.90;68.20
1716;DHT22;855;48.824;9.220;2023-05-10T11:28:43;18.00;68.90
1716;DHT22;855;48.824;9.220;2023-05-10T11:31:11;18.10;69.40
1716;DHT22;855;48.824;9.220;2023-05-10T11:33:43;18.20;67.10
1716;DHT22;855;48.824;9.220;2023-05-10T11:36:13;18.10;66.30
1716;DHT22;855;48.824;9.220;2023-05-10T11:38:40;18.10;67.20
1716;DHT22;855;48.824;9.220;2023-05-10T11:41:08;18.00;66.50
1716;DHT22;855;48.824;9.220;2023-05-10T11:43:37;18.10;67.30
1716;DHT22;855;48.824;9.220;2023-05-10T11:46:04;18.20;66.70
1716;DHT22;855;48.824;9.220;2023-05-10T11:48:32;18.30;66.10
1716;DHT22;855;48.824;9.220;2023-05-10T11:51:00;18.40;66.00
1716;DHT22;855;48.824;9.220;2023-05-10T11:53:30;18.50;64.90
1716;DHT22;855;48.824;9.220;2023-05-10T11:56:02;18.60;66.10
1716;DHT22;855;48.824;9.220;2023-05-10T11:58:30;18.60;66.00
1716;DHT22;855;48.824;9.220;2023-05-10T12:00:57;18.40;64.80
1716;DHT22;855;48.824;9.220;2023-05-10T12:03:24;18.20;63.80
1716;DHT22;855;48.824;9.220;2023-05-10T12:05:51;18.40;64.80
1716;DHT22;855;48.824;9.220;2023-05-10T12:08:21;18.50;64.40
1716;DHT22;855;48.824;9.220;2023-05-10T12:10:49;18.60;64.20
1716;DHT22;855;48.824;9.220;2023-05-10T12:13:17;18.70;64.70
1716;DHT22;855;48.824;9.220;2023-05-10T12:15:44;18.50;65.30
1716;DHT22;855;48.824;9.220;2023-05-10T12:18:11;18.50;64.90
1716;DHT22;855;48.824;9.220;2023-05-10T12:20:38;18.50;66.70
1716;DHT22;855;48.824;9.220;2023-05-10T12:23:07;18.40;66.00
1716;DHT22;855;48.824;9.220;2023-05-10T12:25:35;18.40;66.50
1716;DHT22;855;48.824;9.220;2023-05-10T12:28:05;18.40;66.80
1716;DHT22;855;48.824;9.220;2023-05-10T12:30:34;18.40;67.20
1716;DHT22;855;48.824;9.220;2023-05-10T12:33:02;18.40;65.30
1716;DHT22;855;48.824;9.220;2023-05-10T12:35:32;18.40;65.20
1716;DHT22;855;48.824;9.220;2023-05-10T12:37:59;18.40;65.10
1716;DHT22;855;48.824;9.220;2023-05-10T12:40:26;18.40;63.90
1716;DHT22;855;48.824;9.220;2023-05-10T12:42:53;18.40;64.30
1716;DHT22;855;48.824;9.220;2023-05-10T12:45:21;18.50;64.80
1716;DHT22;855;48.824;9.220;2023-05-10T12:47:48;18.60;62.80
1716;DHT22;855;48.824;9.220;2023-05-10T12:50:15;18.60;62.20
1716;DHT22;855;48.824;9.220;2023-05-10T12:52:42;18.80;62.70
1716;DHT22;855;48.824;9.220;2023-05-10T12:55:08;18.90;62.40
1716;DHT22;855;48.824;9.220;2023-05-10T12:57:35;18.90;60.70
1716;DHT22;855;48.824;9.220;2023-05-10T13:00:02;18.90;60.20
1716;DHT22;855;48.824;9.220;2023-05-10T13:02:32;18.80;61.40
1716;DHT22;855;48.824;9.220;2023-05-10T13:04:58;18.70;62.00
1716;DHT22;855;48.824;9.220;2023-05-10T13:07:25;18.70;61.90
1716;DHT22;855;48.824;9.220;2023-05-10T13:09:52;18.40;62.60
1716;DHT22;855;48.824;9.220;2023-05-10T13:12:19;18.30;62.80
1716;DHT22;855;48.824;9.220;2023-05-10T13:14:46;18.20;62.80
1716;DHT22;855;48.824;9.220;2023-05-10T13:17:12;18.00;64.50
1716;DHT22;855;48.824;9.220;2023-05-10T13:19:41;17.90;64.90
1716;DHT22;855;48.824;9.220;2023-05-10T13:22:07;18.00;65.20
1716;DHT22;855;48.824;9.220;2023-05-10T13:24:34;18.00;64.70
1716;DHT22;855;48.824;9.220;2023-05-10T13:27:01;18.10;64.80
1716;DHT22;855;48.824;9.220;2023-05-10T13:29:28;18.20;65.20
1716;DHT22;855;48.824;9.220;2023-05-10T13:31:55;18.20;62.70
1716;DHT22;855;48.824;9.220;2023-05-10T13:34:21;18.20;63.10
1716;DHT22;855;48.824;9.220;2023-05-10T13:36:51;18.20;63.40
1716;DHT22;855;48.824;9.220;2023-05-10T13:39:18;18.30;62.60
1716;DHT22;855;48.824;9.220;2023-05-10T13:41:45;18.30;63.00
1716;DHT22;855;48.824;9.220;2023-05-10T13:44:12;18.40;63.40
1716;DHT22;855;48.824;9.220;2023-05-10T13:46:40;18.40;63.80
1716;DHT22;855;48.824;9.220;2023-05-10T13:49:08;18.40;63.50
1716;DHT22;855;48.824;9.220;2023-05-10T13:51:35;18.40;64.40
1716;DHT22;855;48.824;9.220;2023-05-10T13:54:03;18.40;64.20
1716;DHT22;855;48.824;9.220;2023-05-10T13:56:30;18.50;63.20
1716;DHT22;855;48.824;9.220;2023-05-10T13:58:57;18.40;64.30
1716;DHT22;855;48.824;9.220;2023-05-10T14:01:24;18.40;63.40
1716;DHT22;855;48.824;9.220;2023-05-10T14:03:51;18.30;61.80
1716;DHT22;855;48.824;9.220;2023-05-10T14:06:18;18.20;62.00
1716;DHT22;855;48.824;9.220;2023-05-10T14:08:45;18.20;62.60
1716;DHT22;855;48.824;9.220;2023-05-10T14:11:13;18.20;61.80
1716;DHT22;855;48.824;9.220;2023-05-10T14:13:40;18.20;62.20
1716;DHT22;855;48.824;9.220;2023-05-10T14:16:07;18.30;62.70
1716;DHT22;855;48.824;9.220;2023-05-10T14:18:34;18.50;62.40
1716;DHT22;855;48.824;9.220;2023-05-10T14:21:02;18.60;61.50
1716;DHT22;855;48.824;9.220;2023-05-10T14:23:29;18.70;62.00
1716;DHT22;855;48.824;9.220;2023-05-10T14:25:56;18.60;60.20
1716;DHT22;855;48.824;9.220;2023-05-10T14:28:24;18.50;60.20
1716;DHT22;855;48.824;9.220;2023-05-10T14:30:51;18.40;61.40
1716;DHT22;855;48.824;9.220;2023-05-10T14:33:18;18.50;60.40
1716;DHT22;855;48.824;9.220;2023-05-10T14:35:46;18.30;60.10
1716;DHT22;855;48.824;9.220;2023-05-10T14:38:13;18.30;60.20
1716;DHT22;855;48.824;9.220;2023-05-10T14:40:40;18.40;59.40
1716;DHT22;855;48.824;9.220;2023-05-10T14:43:07;18.50;58.00
1716;DHT22;855;48.824;9.220;2023-05-10T14:45:35;18.70;58.80
1716;DHT22;855;48.824;9.220;2023-05-10T14:48:02;18.90;58.30
1716;DHT22;855;48.824;9.220;2023-05-10T14:50:30;19.00;57.90
1716;DHT22;855;48.824;9.220;2023-05-10T14:52:57;19.10;58.20
1716;DHT22;855;48.824;9.220;2023-05-10T14:55:24;19.10;58.20
1716;DHT22;855;48.824;9.220;2023-05-10T14:57:50;19.00;58.70
1716;DHT22;855;48.824;9.220;2023-05-10T15:00:18;19.10;58.00
1716;DHT22;855;48.824;9.220;2023-05-10T15:02:46;19.20;57.70
1716;DHT22;855;48.824;9.220;2023-05-10T15:05:14;19.30;57.70
1716;DHT22;855;48.824;9.220;2023-05-10T15:07:40;19.30;58.50
1716;DHT22;855;48.824;9.220;2023-05-10T15:10:09;19.30;58.90
1716;DHT22;855;48.824;9.220;2023-05-10T15:12:36;19.30;59.40
1716;DHT22;855;48.824;9.220;2023-05-10T15:15:03;19.50;59.50
1716;DHT22;855;48.824;9.220;2023-05-10T15:17:30;19.60;59.00
1716;DHT22;855;48.824;9.220;2023-05-10T15:19:58;19.70;58.70
1716;DHT22;855;48.824;9.220;2023-05-10T15:22:25;19.80;57.40
1716;DHT22;855;48.824;9.220;2023-05-10T15:24:53;19.60;57.70
1716;DHT22;855;48.824;9.220;2023-05-10T15:27:20;19.40;58.90
1716;DHT22;855;48.824;9.220;2023-05-10T15:29:47;19.30;58.70
1716;DHT22;855;48.824;9.220;2023-05-10T15:32:14;19.20;60.20
1716;DHT22;855;48.824;9.220;2023-05-10T15:34:41;19.00;60.30
1716;DHT22;855;48.824;9.220;2023-05-10T15:37:09;18.80;61.10
1716;DHT22;855;48.824;9.220;2023-05-10T15:39:36;19.00;60.00
1716;DHT22;855;48.824;9.220;2023-05-10T15:42:03;19.20;60.00
1716;DHT22;855;48.824;9.220;2023-05-10T15:44:30;19.30;60.60
1716;DHT22;855;48.824;9.220;2023-05-10T15:46:57;19.30;61.10
1716;DHT22;855;48.824;9.220;2023-05-10T15:49:23;19.30;60.10
1716;DHT22;855;48.824;9.220;2023-05-10T15:51:50;19.20;60.20
1716;DHT22;855;48.824;9.220;2023-05-10T15:54:18;19.00;59.50
1716;DHT22;855;48.824;9.220;2023-05-10T15:56:45;18.90;60.20
1716;DHT22;855;48.824;9.220;2023-05-10T15:59:12;18.90;60.20
1716;DHT22;855;48.824;9.220;2023-05-10T16:01:39;18.80;60.60
1716;DHT22;855;48.824;9.220;2023-05-10T16:04:06;18.90;60.70
1716;DHT22;855;48.824;9.220;2023-05-10T16:06:33;18.80;61.10
1716;DHT22;855;48.824;9.220;2023-05-10T16:09:00;18.80;62.20
1716;DHT22;855;48.824;9.220;2023-05-10T16:11:28;18.80;61.40
1716;DHT22;855;48.824;9.220;2023-05-10T16:13:55;18.80;62.20
1716;DHT22;855;48.824;9.220;2023-05-10T16:16:23;18.90;62.00
1716;DHT22;855;48.824;9.220;2023-05-10T16:18:50;18.90;60.70
1716;DHT22;855;48.824;9.220;2023-05-10T16:21:17;18.90;60.80
1716;DHT22;855;48.824;9.220;2023-05-10T16:23:44;18.90;61.40
1716;DHT22;855;48.824;9.220;2023-05-10T16:26:11;18.90;61.50
1716;DHT22;855;48.824;9.220;2023-05-10T16:28:39;18.90;62.00
1716;DHT22;855;48.824;9.220;2023-05-10T16:31:06;18.80;61.10